Leland, North Carolina
Current Conditions -  °F | °C
As of 4:53 PM on Tuesday 21 Oct 2014 (Local Time) from KILM Reporting Station
Clear Clear  
Wind Chill: 77°   Ceiling: Unl
Heat Index: 78°   Visibility: 10mi
Dew Point: 52°   Wind: 8mph
Humidity: 42%   Direction: 230°SW
Pressure: 29.83"   Gusts: NA
Location:  34.26°N, 78.04°W
Report Text: KILM 212053Z 23007KT 10SM CLR 25/11 A2983 RMK AO2 SLP102 T02500111 55010
Loading
Personal Weather Stations






























Interactive Weather Map
Tropical Storm Tracking
New forecast layout! Learn more

10-Day Weather Forecast

Advertisements
Track Severe Weather on mobile